sensor_id;sensor_type;location;lat;lon;timestamp;P1;durP1;ratioP1;P2;durP2;ratioP2
6257;SDS011;13501;49.246;9.168;2022-07-10T00:00:06;4.67;;;3.30;;
6257;SDS011;13501;49.246;9.168;2022-07-10T00:02:36;7.40;;;3.67;;
6257;SDS011;13501;49.246;9.168;2022-07-10T00:05:03;3.97;;;3.40;;
6257;SDS011;13501;49.246;9.168;2022-07-10T00:07:30;3.10;;;2.90;;
6257;SDS011;13501;49.246;9.168;2022-07-10T00:09:57;4.60;;;3.23;;
6257;SDS011;13501;49.246;9.168;2022-07-10T00:12:24;4.80;;;3.73;;
6257;SDS011;13501;49.246;9.168;2022-07-10T00:14:51;3.50;;;3.20;;
6257;SDS011;13501;49.246;9.168;2022-07-10T00:17:18;3.30;;;3.00;;
6257;SDS011;13501;49.246;9.168;2022-07-10T00:19:46;3.80;;;3.30;;
6257;SDS011;13501;49.246;9.168;2022-07-10T00:22:13;4.03;;;3.47;;
6257;SDS011;13501;49.246;9.168;2022-07-10T00:24:40;4.23;;;3.33;;
6257;SDS011;13501;49.246;9.168;2022-07-10T00:27:07;4.93;;;3.50;;
6257;SDS011;13501;49.246;9.168;2022-07-10T00:29:34;5.10;;;4.27;;
6257;SDS011;13501;49.246;9.168;2022-07-10T00:32:00;4.10;;;3.63;;
6257;SDS011;13501;49.246;9.168;2022-07-10T00:34:27;4.37;;;3.40;;
6257;SDS011;13501;49.246;9.168;2022-07-10T00:36:56;7.50;;;3.40;;
6257;SDS011;13501;49.246;9.168;2022-07-10T00:39:22;5.43;;;3.80;;
6257;SDS011;13501;49.246;9.168;2022-07-10T00:41:50;3.70;;;3.40;;
6257;SDS011;13501;49.246;9.168;2022-07-10T00:44:16;4.47;;;3.80;;
6257;SDS011;13501;49.246;9.168;2022-07-10T00:46:43;3.80;;;3.20;;
6257;SDS011;13501;49.246;9.168;2022-07-10T00:49:10;3.50;;;3.20;;
6257;SDS011;13501;49.246;9.168;2022-07-10T00:51:37;3.73;;;3.40;;
6257;SDS011;13501;49.246;9.168;2022-07-10T00:54:06;4.47;;;4.07;;
6257;SDS011;13501;49.246;9.168;2022-07-10T00:56:34;4.80;;;3.67;;
6257;SDS011;13501;49.246;9.168;2022-07-10T00:59:02;3.77;;;3.47;;
6257;SDS011;13501;49.246;9.168;2022-07-10T01:01:29;4.40;;;3.90;;
6257;SDS011;13501;49.246;9.168;2022-07-10T01:03:58;4.90;;;3.40;;
6257;SDS011;13501;49.246;9.168;2022-07-10T01:06:25;3.87;;;3.50;;
6257;SDS011;13501;49.246;9.168;2022-07-10T01:08:52;3.40;;;3.10;;
6257;SDS011;13501;49.246;9.168;2022-07-10T01:11:20;4.00;;;3.70;;
6257;SDS011;13501;49.246;9.168;2022-07-10T01:13:47;6.23;;;4.03;;
6257;SDS011;13501;49.246;9.168;2022-07-10T01:16:14;4.23;;;3.83;;
6257;SDS011;13501;49.246;9.168;2022-07-10T01:18:40;5.20;;;3.80;;
6257;SDS011;13501;49.246;9.168;2022-07-10T01:24:03;3.67;;;3.20;;
6257;SDS011;13501;49.246;9.168;2022-07-10T01:26:32;5.60;;;3.47;;
6257;SDS011;13501;49.246;9.168;2022-07-10T01:29:00;3.93;;;3.57;;
6257;SDS011;13501;49.246;9.168;2022-07-10T01:31:30;5.27;;;4.43;;
6257;SDS011;13501;49.246;9.168;2022-07-10T01:33:58;4.07;;;3.77;;
6257;SDS011;13501;49.246;9.168;2022-07-10T01:36:25;4.00;;;3.70;;
6257;SDS011;13501;49.246;9.168;2022-07-10T01:38:54;3.80;;;3.43;;
6257;SDS011;13501;49.246;9.168;2022-07-10T01:41:24;4.40;;;3.73;;
6257;SDS011;13501;49.246;9.168;2022-07-10T01:43:52;4.23;;;3.40;;
6257;SDS011;13501;49.246;9.168;2022-07-10T01:46:19;3.57;;;3.27;;
6257;SDS011;13501;49.246;9.168;2022-07-10T01:48:46;3.10;;;2.90;;
6257;SDS011;13501;49.246;9.168;2022-07-10T01:51:13;3.87;;;3.57;;
6257;SDS011;13501;49.246;9.168;2022-07-10T01:53:40;4.57;;;4.00;;
6257;SDS011;13501;49.246;9.168;2022-07-10T01:56:08;6.37;;;3.57;;
6257;SDS011;13501;49.246;9.168;2022-07-10T01:58:38;4.20;;;2.97;;
6257;SDS011;13501;49.246;9.168;2022-07-10T02:01:05;3.63;;;3.33;;
6257;SDS011;13501;49.246;9.168;2022-07-10T02:03:33;4.23;;;3.80;;
6257;SDS011;13501;49.246;9.168;2022-07-10T02:06:18;3.93;;;3.50;;
6257;SDS011;13501;49.246;9.168;2022-07-10T02:08:44;3.97;;;3.60;;
6257;SDS011;13501;49.246;9.168;2022-07-10T02:11:11;4.20;;;3.70;;
6257;SDS011;13501;49.246;9.168;2022-07-10T02:13:39;4.20;;;3.80;;
6257;SDS011;13501;49.246;9.168;2022-07-10T02:16:06;4.60;;;3.60;;
6257;SDS011;13501;49.246;9.168;2022-07-10T02:18:33;4.67;;;3.70;;
6257;SDS011;13501;49.246;9.168;2022-07-10T02:21:00;4.80;;;3.77;;
6257;SDS011;13501;49.246;9.168;2022-07-10T02:23:27;4.60;;;4.03;;
6257;SDS011;13501;49.246;9.168;2022-07-10T02:25:54;4.27;;;3.90;;
6257;SDS011;13501;49.246;9.168;2022-07-10T02:28:21;4.40;;;4.00;;
6257;SDS011;13501;49.246;9.168;2022-07-10T02:30:49;4.23;;;3.83;;
6257;SDS011;13501;49.246;9.168;2022-07-10T02:33:16;5.13;;;4.00;;
6257;SDS011;13501;49.246;9.168;2022-07-10T02:35:43;4.80;;;3.60;;
6257;SDS011;13501;49.246;9.168;2022-07-10T02:38:10;4.27;;;3.87;;
6257;SDS011;13501;49.246;9.168;2022-07-10T02:40:37;4.03;;;3.73;;
6257;SDS011;13501;49.246;9.168;2022-07-10T02:43:03;5.53;;;3.73;;
6257;SDS011;13501;49.246;9.168;2022-07-10T02:45:30;4.60;;;4.10;;
6257;SDS011;13501;49.246;9.168;2022-07-10T02:47:58;6.63;;;3.73;;
6257;SDS011;13501;49.246;9.168;2022-07-10T02:50:25;4.53;;;3.60;;
6257;SDS011;13501;49.246;9.168;2022-07-10T02:52:52;5.27;;;3.53;;
6257;SDS011;13501;49.246;9.168;2022-07-10T02:55:19;5.20;;;3.77;;
6257;SDS011;13501;49.246;9.168;2022-07-10T02:57:46;8.80;;;3.50;;
6257;SDS011;13501;49.246;9.168;2022-07-10T03:00:13;3.43;;;3.13;;
6257;SDS011;13501;49.246;9.168;2022-07-10T03:02:40;6.27;;;3.70;;
6257;SDS011;13501;49.246;9.168;2022-07-10T03:05:08;5.10;;;3.70;;
6257;SDS011;13501;49.246;9.168;2022-07-10T03:07:35;4.23;;;3.83;;
6257;SDS011;13501;49.246;9.168;2022-07-10T03:10:02;4.53;;;4.10;;
6257;SDS011;13501;49.246;9.168;2022-07-10T03:12:29;3.97;;;3.63;;
6257;SDS011;13501;49.246;9.168;2022-07-10T03:14:56;5.37;;;3.50;;
6257;SDS011;13501;49.246;9.168;2022-07-10T03:17:24;6.47;;;4.17;;
6257;SDS011;13501;49.246;9.168;2022-07-10T03:19:51;5.23;;;3.70;;
6257;SDS011;13501;49.246;9.168;2022-07-10T03:22:19;4.77;;;3.90;;
6257;SDS011;13501;49.246;9.168;2022-07-10T03:24:46;4.17;;;3.77;;
6257;SDS011;13501;49.246;9.168;2022-07-10T03:27:14;5.77;;;3.83;;
6257;SDS011;13501;49.246;9.168;2022-07-10T03:29:41;6.97;;;4.30;;
6257;SDS011;13501;49.246;9.168;2022-07-10T03:32:08;8.03;;;3.90;;
6257;SDS011;13501;49.246;9.168;2022-07-10T03:34:35;5.17;;;4.50;;
6257;SDS011;13501;49.246;9.168;2022-07-10T03:37:02;5.00;;;4.10;;
6257;SDS011;13501;49.246;9.168;2022-07-10T03:39:30;6.80;;;4.10;;
6257;SDS011;13501;49.246;9.168;2022-07-10T03:41:57;6.07;;;4.00;;
6257;SDS011;13501;49.246;9.168;2022-07-10T03:44:24;4.43;;;3.87;;
6257;SDS011;13501;49.246;9.168;2022-07-10T03:46:51;6.77;;;3.67;;
6257;SDS011;13501;49.246;9.168;2022-07-10T03:49:18;6.63;;;4.03;;
6257;SDS011;13501;49.246;9.168;2022-07-10T03:51:45;4.67;;;3.80;;
6257;SDS011;13501;49.246;9.168;2022-07-10T03:54:11;5.23;;;4.23;;
6257;SDS011;13501;49.246;9.168;2022-07-10T03:56:40;4.33;;;3.93;;
6257;SDS011;13501;49.246;9.168;2022-07-10T03:59:24;4.17;;;3.73;;
6257;SDS011;13501;49.246;9.168;2022-07-10T04:01:50;4.13;;;3.73;;
6257;SDS011;13501;49.246;9.168;2022-07-10T04:04:17;4.50;;;4.10;;
6257;SDS011;13501;49.246;9.168;2022-07-10T04:06:44;8.00;;;4.20;;
6257;SDS011;13501;49.246;9.168;2022-07-10T04:09:11;5.57;;;3.50;;
6257;SDS011;13501;49.246;9.168;2022-07-10T04:11:39;4.27;;;3.87;;
6257;SDS011;13501;49.246;9.168;2022-07-10T04:14:06;7.57;;;3.80;;
6257;SDS011;13501;49.246;9.168;2022-07-10T04:16:33;5.23;;;3.93;;
6257;SDS011;13501;49.246;9.168;2022-07-10T04:18:59;7.77;;;4.23;;
6257;SDS011;13501;49.246;9.168;2022-07-10T04:21:26;7.20;;;4.60;;
6257;SDS011;13501;49.246;9.168;2022-07-10T04:23:53;5.57;;;3.87;;
6257;SDS011;13501;49.246;9.168;2022-07-10T04:26:20;4.90;;;4.17;;
6257;SDS011;13501;49.246;9.168;2022-07-10T04:28:48;9.43;;;4.10;;
6257;SDS011;13501;49.246;9.168;2022-07-10T04:31:14;5.80;;;3.90;;
6257;SDS011;13501;49.246;9.168;2022-07-10T04:33:41;6.93;;;3.40;;
6257;SDS011;13501;49.246;9.168;2022-07-10T04:36:08;5.50;;;3.40;;
6257;SDS011;13501;49.246;9.168;2022-07-10T04:38:35;4.60;;;3.43;;
6257;SDS011;13501;49.246;9.168;2022-07-10T04:41:01;5.10;;;3.50;;
6257;SDS011;13501;49.246;9.168;2022-07-10T04:43:29;5.23;;;3.53;;
6257;SDS011;13501;49.246;9.168;2022-07-10T04:45:57;6.87;;;3.53;;
6257;SDS011;13501;49.246;9.168;2022-07-10T04:48:24;3.33;;;3.03;;
6257;SDS011;13501;49.246;9.168;2022-07-10T04:50:51;6.07;;;3.80;;
6257;SDS011;13501;49.246;9.168;2022-07-10T04:53:18;6.27;;;3.23;;
6257;SDS011;13501;49.246;9.168;2022-07-10T04:55:45;3.10;;;2.80;;
6257;SDS011;13501;49.246;9.168;2022-07-10T04:58:12;6.47;;;3.20;;
6257;SDS011;13501;49.246;9.168;2022-07-10T05:00:39;3.00;;;2.70;;
6257;SDS011;13501;49.246;9.168;2022-07-10T05:03:07;4.20;;;2.67;;
6257;SDS011;13501;49.246;9.168;2022-07-10T05:05:34;4.40;;;2.73;;
6257;SDS011;13501;49.246;9.168;2022-07-10T05:08:01;3.87;;;2.60;;
6257;SDS011;13501;49.246;9.168;2022-07-10T05:10:27;3.87;;;2.47;;
6257;SDS011;13501;49.246;9.168;2022-07-10T05:12:54;3.80;;;2.43;;
6257;SDS011;13501;49.246;9.168;2022-07-10T05:15:21;7.37;;;2.40;;
6257;SDS011;13501;49.246;9.168;2022-07-10T05:17:48;4.23;;;2.63;;
6257;SDS011;13501;49.246;9.168;2022-07-10T05:20:16;4.43;;;2.37;;
6257;SDS011;13501;49.246;9.168;2022-07-10T05:22:43;5.10;;;2.63;;
6257;SDS011;13501;49.246;9.168;2022-07-10T05:25:10;3.40;;;2.03;;
6257;SDS011;13501;49.246;9.168;2022-07-10T05:27:36;3.40;;;2.40;;
6257;SDS011;13501;49.246;9.168;2022-07-10T05:30:03;4.40;;;2.60;;
6257;SDS011;13501;49.246;9.168;2022-07-10T05:32:31;4.33;;;2.20;;
6257;SDS011;13501;49.246;9.168;2022-07-10T05:34:58;3.77;;;2.47;;
6257;SDS011;13501;49.246;9.168;2022-07-10T05:37:26;2.80;;;2.20;;
6257;SDS011;13501;49.246;9.168;2022-07-10T05:39:53;9.73;;;2.50;;
6257;SDS011;13501;49.246;9.168;2022-07-10T05:42:20;2.70;;;2.30;;
6257;SDS011;13501;49.246;9.168;2022-07-10T05:44:46;4.40;;;2.17;;
6257;SDS011;13501;49.246;9.168;2022-07-10T05:47:13;3.97;;;2.03;;
6257;SDS011;13501;49.246;9.168;2022-07-10T05:49:40;4.30;;;2.10;;
6257;SDS011;13501;49.246;9.168;2022-07-10T05:52:07;4.10;;;1.80;;
6257;SDS011;13501;49.246;9.168;2022-07-10T05:54:35;4.33;;;1.80;;
6257;SDS011;13501;49.246;9.168;2022-07-10T05:57:02;3.87;;;1.80;;
6257;SDS011;13501;49.246;9.168;2022-07-10T05:59:29;4.20;;;1.83;;
6257;SDS011;13501;49.246;9.168;2022-07-10T06:01:59;3.97;;;1.67;;
6257;SDS011;13501;49.246;9.168;2022-07-10T06:04:26;3.33;;;1.90;;
6257;SDS011;13501;49.246;9.168;2022-07-10T06:06:53;3.40;;;1.60;;
6257;SDS011;13501;49.246;9.168;2022-07-10T06:09:19;2.53;;;1.60;;
6257;SDS011;13501;49.246;9.168;2022-07-10T06:11:47;2.40;;;1.80;;
6257;SDS011;13501;49.246;9.168;2022-07-10T06:14:14;4.27;;;1.70;;
6257;SDS011;13501;49.246;9.168;2022-07-10T06:16:41;3.27;;;1.50;;
6257;SDS011;13501;49.246;9.168;2022-07-10T06:19:08;2.43;;;1.67;;
6257;SDS011;13501;49.246;9.168;2022-07-10T06:21:35;4.67;;;1.50;;
6257;SDS011;13501;49.246;9.168;2022-07-10T06:24:02;3.63;;;1.83;;
6257;SDS011;13501;49.246;9.168;2022-07-10T06:26:29;3.07;;;1.67;;
6257;SDS011;13501;49.246;9.168;2022-07-10T06:28:57;2.30;;;1.40;;
6257;SDS011;13501;49.246;9.168;2022-07-10T06:31:24;6.53;;;1.63;;
6257;SDS011;13501;49.246;9.168;2022-07-10T06:33:50;3.20;;;1.70;;
6257;SDS011;13501;49.246;9.168;2022-07-10T06:36:17;6.53;;;1.50;;
6257;SDS011;13501;49.246;9.168;2022-07-10T06:38:44;3.93;;;1.83;;
6257;SDS011;13501;49.246;9.168;2022-07-10T06:41:11;4.70;;;2.00;;
6257;SDS011;13501;49.246;9.168;2022-07-10T06:43:38;4.23;;;1.90;;
6257;SDS011;13501;49.246;9.168;2022-07-10T06:46:06;4.03;;;1.97;;
6257;SDS011;13501;49.246;9.168;2022-07-10T06:48:33;4.33;;;1.70;;
6257;SDS011;13501;49.246;9.168;2022-07-10T06:51:00;1.90;;;1.47;;
6257;SDS011;13501;49.246;9.168;2022-07-10T06:53:27;2.67;;;1.70;;
6257;SDS011;13501;49.246;9.168;2022-07-10T06:55:54;2.70;;;1.60;;
6257;SDS011;13501;49.246;9.168;2022-07-10T06:58:21;3.07;;;1.50;;
6257;SDS011;13501;49.246;9.168;2022-07-10T07:00:48;3.40;;;1.40;;
6257;SDS011;13501;49.246;9.168;2022-07-10T07:03:16;2.70;;;1.53;;
6257;SDS011;13501;49.246;9.168;2022-07-10T07:05:43;2.20;;;1.23;;
6257;SDS011;13501;49.246;9.168;2022-07-10T07:08:10;1.87;;;1.30;;
6257;SDS011;13501;49.246;9.168;2022-07-10T07:10:38;4.97;;;1.50;;
6257;SDS011;13501;49.246;9.168;2022-07-10T07:13:05;4.63;;;1.67;;
6257;SDS011;13501;49.246;9.168;2022-07-10T07:15:34;4.07;;;1.30;;
6257;SDS011;13501;49.246;9.168;2022-07-10T07:18:07;6.17;;;1.77;;
6257;SDS011;13501;49.246;9.168;2022-07-10T07:20:38;3.13;;;1.43;;
6257;SDS011;13501;49.246;9.168;2022-07-10T07:23:23;2.80;;;1.60;;
6257;SDS011;13501;49.246;9.168;2022-07-10T07:25:50;3.00;;;1.30;;
6257;SDS011;13501;49.246;9.168;2022-07-10T07:28:17;4.67;;;1.70;;
6257;SDS011;13501;49.246;9.168;2022-07-10T07:30:45;1.90;;;1.43;;
6257;SDS011;13501;49.246;9.168;2022-07-10T07:33:12;5.37;;;1.30;;
6257;SDS011;13501;49.246;9.168;2022-07-10T07:35:40;3.90;;;1.10;;
6257;SDS011;13501;49.246;9.168;2022-07-10T07:38:08;3.30;;;1.27;;
6257;SDS011;13501;49.246;9.168;2022-07-10T07:40:34;3.13;;;1.57;;
6257;SDS011;13501;49.246;9.168;2022-07-10T07:43:02;2.13;;;1.37;;
6257;SDS011;13501;49.246;9.168;2022-07-10T07:45:29;1.97;;;1.10;;
6257;SDS011;13501;49.246;9.168;2022-07-10T07:47:56;3.43;;;1.73;;
6257;SDS011;13501;49.246;9.168;2022-07-10T07:50:27;4.17;;;1.40;;
6257;SDS011;13501;49.246;9.168;2022-07-10T07:52:56;1.80;;;1.30;;
6257;SDS011;13501;49.246;9.168;2022-07-10T07:55:23;3.50;;;1.50;;
6257;SDS011;13501;49.246;9.168;2022-07-10T07:57:50;3.20;;;1.20;;
6257;SDS011;13501;49.246;9.168;2022-07-10T08:00:18;2.50;;;1.30;;
6257;SDS011;13501;49.246;9.168;2022-07-10T08:02:47;4.90;;;1.70;;
6257;SDS011;13501;49.246;9.168;2022-07-10T08:05:14;3.30;;;1.30;;
6257;SDS011;13501;49.246;9.168;2022-07-10T08:07:42;5.20;;;1.57;;
6257;SDS011;13501;49.246;9.168;2022-07-10T08:10:12;2.23;;;1.40;;
6257;SDS011;13501;49.246;9.168;2022-07-10T08:12:40;2.07;;;1.20;;
6257;SDS011;13501;49.246;9.168;2022-07-10T08:15:08;2.93;;;1.20;;
6257;SDS011;13501;49.246;9.168;2022-07-10T08:17:36;4.20;;;1.63;;
6257;SDS011;13501;49.246;9.168;2022-07-10T08:20:03;2.47;;;1.43;;
6257;SDS011;13501;49.246;9.168;2022-07-10T08:22:31;2.10;;;1.20;;
6257;SDS011;13501;49.246;9.168;2022-07-10T08:24:58;4.50;;;1.37;;
6257;SDS011;13501;49.246;9.168;2022-07-10T08:27:27;2.63;;;1.80;;
6257;SDS011;13501;49.246;9.168;2022-07-10T08:29:54;3.07;;;1.50;;
6257;SDS011;13501;49.246;9.168;2022-07-10T08:32:21;3.80;;;1.53;;
6257;SDS011;13501;49.246;9.168;2022-07-10T08:34:48;1.93;;;1.20;;
6257;SDS011;13501;49.246;9.168;2022-07-10T08:37:15;3.10;;;1.33;;
6257;SDS011;13501;49.246;9.168;2022-07-10T08:39:45;2.07;;;1.50;;
6257;SDS011;13501;49.246;9.168;2022-07-10T08:42:12;1.17;;;1.00;;
6257;SDS011;13501;49.246;9.168;2022-07-10T08:44:42;4.33;;;1.60;;
6257;SDS011;13501;49.246;9.168;2022-07-10T08:47:09;4.80;;;1.40;;
6257;SDS011;13501;49.246;9.168;2022-07-10T08:49:37;3.40;;;1.60;;
6257;SDS011;13501;49.246;9.168;2022-07-10T08:52:12;3.17;;;1.33;;
6257;SDS011;13501;49.246;9.168;2022-07-10T08:54:49;2.70;;;1.33;;
6257;SDS011;13501;49.246;9.168;2022-07-10T08:57:16;4.30;;;1.33;;
6257;SDS011;13501;49.246;9.168;2022-07-10T08:59:45;1.70;;;1.20;;
6257;SDS011;13501;49.246;9.168;2022-07-10T09:02:12;2.80;;;1.20;;
6257;SDS011;13501;49.246;9.168;2022-07-10T09:04:39;2.60;;;1.40;;
6257;SDS011;13501;49.246;9.168;2022-07-10T09:07:06;3.33;;;1.73;;
6257;SDS011;13501;49.246;9.168;2022-07-10T09:09:37;3.13;;;1.47;;
6257;SDS011;13501;49.246;9.168;2022-07-10T09:12:17;7.93;;;1.50;;
6257;SDS011;13501;49.246;9.168;2022-07-10T09:14:46;4.83;;;1.33;;
6257;SDS011;13501;49.246;9.168;2022-07-10T09:17:12;4.63;;;1.43;;
6257;SDS011;13501;49.246;9.168;2022-07-10T09:19:39;1.40;;;1.10;;
6257;SDS011;13501;49.246;9.168;2022-07-10T09:22:07;3.40;;;1.30;;
6257;SDS011;13501;49.246;9.168;2022-07-10T09:24:35;4.50;;;1.60;;
6257;SDS011;13501;49.246;9.168;2022-07-10T09:27:05;4.83;;;1.60;;
6257;SDS011;13501;49.246;9.168;2022-07-10T09:29:33;2.30;;;1.23;;
6257;SDS011;13501;49.246;9.168;2022-07-10T09:32:13;1.97;;;1.10;;
6257;SDS011;13501;49.246;9.168;2022-07-10T09:34:42;2.10;;;1.40;;
6257;SDS011;13501;49.246;9.168;2022-07-10T09:37:20;3.60;;;1.60;;
6257;SDS011;13501;49.246;9.168;2022-07-10T09:39:55;3.13;;;1.30;;
6257;SDS011;13501;49.246;9.168;2022-07-10T09:42:26;2.27;;;1.33;;
6257;SDS011;13501;49.246;9.168;2022-07-10T09:47:43;1.70;;;1.20;;
6257;SDS011;13501;49.246;9.168;2022-07-10T09:50:19;3.93;;;1.60;;
6257;SDS011;13501;49.246;9.168;2022-07-10T09:52:48;2.83;;;1.50;;
6257;SDS011;13501;49.246;9.168;2022-07-10T09:55:17;3.87;;;1.80;;
6257;SDS011;13501;49.246;9.168;2022-07-10T09:57:47;5.33;;;1.40;;
6257;SDS011;13501;49.246;9.168;2022-07-10T10:00:20;4.47;;;1.57;;
6257;SDS011;13501;49.246;9.168;2022-07-10T10:02:50;3.70;;;1.67;;
6257;SDS011;13501;49.246;9.168;2022-07-10T10:05:20;5.53;;;1.60;;
6257;SDS011;13501;49.246;9.168;2022-07-10T10:07:51;3.07;;;1.40;;
6257;SDS011;13501;49.246;9.168;2022-07-10T10:10:18;1.60;;;1.00;;
6257;SDS011;13501;49.246;9.168;2022-07-10T10:12:48;3.77;;;1.43;;
6257;SDS011;13501;49.246;9.168;2022-07-10T10:15:22;3.13;;;1.40;;
6257;SDS011;13501;49.246;9.168;2022-07-10T10:17:50;2.40;;;1.20;;
6257;SDS011;13501;49.246;9.168;2022-07-10T10:20:18;3.17;;;1.30;;
6257;SDS011;13501;49.246;9.168;2022-07-10T10:23:01;2.07;;;1.27;;
6257;SDS011;13501;49.246;9.168;2022-07-10T10:25:29;2.63;;;1.50;;
6257;SDS011;13501;49.246;9.168;2022-07-10T10:27:59;4.70;;;1.30;;
6257;SDS011;13501;49.246;9.168;2022-07-10T10:30:29;2.80;;;1.33;;
6257;SDS011;13501;49.246;9.168;2022-07-10T10:32:56;3.53;;;1.40;;
6257;SDS011;13501;49.246;9.168;2022-07-10T10:38:15;2.70;;;1.40;;
6257;SDS011;13501;49.246;9.168;2022-07-10T10:40:42;2.40;;;1.57;;
6257;SDS011;13501;49.246;9.168;2022-07-10T10:43:15;4.47;;;1.20;;
6257;SDS011;13501;49.246;9.168;2022-07-10T10:45:44;3.13;;;1.33;;
6257;SDS011;13501;49.246;9.168;2022-07-10T10:48:12;3.10;;;1.10;;
6257;SDS011;13501;49.246;9.168;2022-07-10T10:50:40;11.70;;;9.40;;
6257;SDS011;13501;49.246;9.168;2022-07-10T10:53:14;3.27;;;1.93;;
6257;SDS011;13501;49.246;9.168;2022-07-10T10:58:52;17.57;;;4.27;;
6257;SDS011;13501;49.246;9.168;2022-07-10T11:01:27;5.43;;;1.57;;
6257;SDS011;13501;49.246;9.168;2022-07-10T11:04:17;7.20;;;4.10;;
6257;SDS011;13501;49.246;9.168;2022-07-10T11:06:45;4.53;;;3.93;;
6257;SDS011;13501;49.246;9.168;2022-07-10T11:09:23;6.20;;;2.03;;
6257;SDS011;13501;49.246;9.168;2022-07-10T11:11:57;3.57;;;1.40;;
6257;SDS011;13501;49.246;9.168;2022-07-10T11:14:28;4.57;;;2.07;;
6257;SDS011;13501;49.246;9.168;2022-07-10T11:16:57;2.73;;;1.20;;
6257;SDS011;13501;49.246;9.168;2022-07-10T11:19:25;2.10;;;1.20;;
6257;SDS011;13501;49.246;9.168;2022-07-10T11:22:03;2.13;;;1.43;;
6257;SDS011;13501;49.246;9.168;2022-07-10T11:25:10;2.70;;;1.30;;
6257;SDS011;13501;49.246;9.168;2022-07-10T11:27:58;1.63;;;1.23;;
6257;SDS011;13501;49.246;9.168;2022-07-10T11:30:42;3.40;;;1.40;;
6257;SDS011;13501;49.246;9.168;2022-07-10T11:33:15;3.03;;;1.30;;
6257;SDS011;13501;49.246;9.168;2022-07-10T11:35:44;2.07;;;1.33;;
6257;SDS011;13501;49.246;9.168;2022-07-10T11:38:11;2.03;;;1.10;;
6257;SDS011;13501;49.246;9.168;2022-07-10T11:40:38;1.87;;;1.13;;
6257;SDS011;13501;49.246;9.168;2022-07-10T11:43:05;5.20;;;1.50;;
6257;SDS011;13501;49.246;9.168;2022-07-10T11:45:34;2.87;;;1.80;;
6257;SDS011;13501;49.246;9.168;2022-07-10T11:48:04;1.63;;;1.30;;
6257;SDS011;13501;49.246;9.168;2022-07-10T11:50:37;2.83;;;1.50;;
6257;SDS011;13501;49.246;9.168;2022-07-10T11:53:04;2.83;;;1.30;;
6257;SDS011;13501;49.246;9.168;2022-07-10T11:55:32;1.97;;;1.10;;
6257;SDS011;13501;49.246;9.168;2022-07-10T11:58:12;2.00;;;1.10;;
6257;SDS011;13501;49.246;9.168;2022-07-10T12:00:42;2.50;;;1.27;;
6257;SDS011;13501;49.246;9.168;2022-07-10T12:03:16;1.80;;;1.30;;
6257;SDS011;13501;49.246;9.168;2022-07-10T12:05:46;1.90;;;1.10;;
6257;SDS011;13501;49.246;9.168;2022-07-10T12:08:14;1.93;;;1.07;;
6257;SDS011;13501;49.246;9.168;2022-07-10T12:10:41;4.47;;;1.47;;
6257;SDS011;13501;49.246;9.168;2022-07-10T12:13:09;2.70;;;1.23;;
6257;SDS011;13501;49.246;9.168;2022-07-10T12:15:37;10.90;;;9.47;;
6257;SDS011;13501;49.246;9.168;2022-07-10T12:18:06;4.10;;;1.63;;
6257;SDS011;13501;49.246;9.168;2022-07-10T12:20:34;2.70;;;1.20;;
6257;SDS011;13501;49.246;9.168;2022-07-10T12:23:03;2.83;;;1.23;;
6257;SDS011;13501;49.246;9.168;2022-07-10T12:25:30;2.07;;;1.40;;
6257;SDS011;13501;49.246;9.168;2022-07-10T12:27:57;2.70;;;1.20;;
6257;SDS011;13501;49.246;9.168;2022-07-10T12:30:38;2.47;;;1.10;;
6257;SDS011;13501;49.246;9.168;2022-07-10T12:33:07;4.90;;;1.10;;
6257;SDS011;13501;49.246;9.168;2022-07-10T12:35:45;4.77;;;1.50;;
6257;SDS011;13501;49.246;9.168;2022-07-10T12:38:18;2.10;;;1.30;;
6257;SDS011;13501;49.246;9.168;2022-07-10T12:40:45;3.40;;;1.30;;
6257;SDS011;13501;49.246;9.168;2022-07-10T12:43:12;1.20;;;1.00;;
6257;SDS011;13501;49.246;9.168;2022-07-10T12:48:40;3.00;;;1.30;;
6257;SDS011;13501;49.246;9.168;2022-07-10T12:51:18;6.37;;;1.43;;
6257;SDS011;13501;49.246;9.168;2022-07-10T12:53:55;3.07;;;1.20;;
6257;SDS011;13501;49.246;9.168;2022-07-10T12:56:28;3.67;;;1.53;;
6257;SDS011;13501;49.246;9.168;2022-07-10T12:59:00;1.87;;;1.10;;
6257;SDS011;13501;49.246;9.168;2022-07-10T13:01:28;1.60;;;1.03;;
6257;SDS011;13501;49.246;9.168;2022-07-10T13:04:05;2.00;;;1.00;;
6257;SDS011;13501;49.246;9.168;2022-07-10T13:06:33;1.73;;;1.20;;
6257;SDS011;13501;49.246;9.168;2022-07-10T13:09:03;3.47;;;1.40;;
6257;SDS011;13501;49.246;9.168;2022-07-10T13:11:46;2.90;;;1.20;;
6257;SDS011;13501;49.246;9.168;2022-07-10T13:14:13;1.93;;;1.00;;
6257;SDS011;13501;49.246;9.168;2022-07-10T13:16:40;3.30;;;1.30;;
6257;SDS011;13501;49.246;9.168;2022-07-10T13:19:07;2.00;;;1.10;;
6257;SDS011;13501;49.246;9.168;2022-07-10T13:21:34;1.50;;;1.00;;
6257;SDS011;13501;49.246;9.168;2022-07-10T13:24:03;1.60;;;1.03;;
6257;SDS011;13501;49.246;9.168;2022-07-10T13:26:30;2.83;;;1.40;;
6257;SDS011;13501;49.246;9.168;2022-07-10T13:28:57;2.70;;;1.20;;
6257;SDS011;13501;49.246;9.168;2022-07-10T13:31:25;2.60;;;1.37;;
6257;SDS011;13501;49.246;9.168;2022-07-10T13:33:52;3.10;;;1.00;;
6257;SDS011;13501;49.246;9.168;2022-07-10T13:36:18;1.83;;;1.10;;
6257;SDS011;13501;49.246;9.168;2022-07-10T13:38:45;3.00;;;1.10;;
6257;SDS011;13501;49.246;9.168;2022-07-10T13:41:16;3.40;;;1.30;;
6257;SDS011;13501;49.246;9.168;2022-07-10T13:43:42;2.10;;;1.00;;
6257;SDS011;13501;49.246;9.168;2022-07-10T13:46:09;1.40;;;0.90;;
6257;SDS011;13501;49.246;9.168;2022-07-10T13:48:36;1.90;;;1.07;;
6257;SDS011;13501;49.246;9.168;2022-07-10T13:51:03;2.17;;;1.10;;
6257;SDS011;13501;49.246;9.168;2022-07-10T13:53:30;4.33;;;1.27;;
6257;SDS011;13501;49.246;9.168;2022-07-10T13:55:57;1.90;;;1.07;;
6257;SDS011;13501;49.246;9.168;2022-07-10T13:58:25;2.10;;;1.10;;
6257;SDS011;13501;49.246;9.168;2022-07-10T14:00:52;2.37;;;1.37;;
6257;SDS011;13501;49.246;9.168;2022-07-10T14:03:19;3.83;;;1.20;;
6257;SDS011;13501;49.246;9.168;2022-07-10T14:05:46;2.90;;;1.60;;
6257;SDS011;13501;49.246;9.168;2022-07-10T14:08:13;3.00;;;1.30;;
6257;SDS011;13501;49.246;9.168;2022-07-10T14:10:40;3.00;;;1.37;;
6257;SDS011;13501;49.246;9.168;2022-07-10T14:13:06;1.97;;;1.17;;
6257;SDS011;13501;49.246;9.168;2022-07-10T14:15:35;3.10;;;1.50;;
6257;SDS011;13501;49.246;9.168;2022-07-10T14:18:02;4.33;;;1.90;;
6257;SDS011;13501;49.246;9.168;2022-07-10T14:20:30;5.80;;;3.60;;
6257;SDS011;13501;49.246;9.168;2022-07-10T14:23:18;1.77;;;1.20;;
6257;SDS011;13501;49.246;9.168;2022-07-10T14:25:45;14.93;;;8.83;;
6257;SDS011;13501;49.246;9.168;2022-07-10T14:28:12;3.60;;;2.60;;
6257;SDS011;13501;49.246;9.168;2022-07-10T14:30:40;12.30;;;7.63;;
6257;SDS011;13501;49.246;9.168;2022-07-10T14:33:08;6.50;;;3.23;;
6257;SDS011;13501;49.246;9.168;2022-07-10T14:35:35;2.13;;;1.20;;
6257;SDS011;13501;49.246;9.168;2022-07-10T14:38:02;3.20;;;2.60;;
6257;SDS011;13501;49.246;9.168;2022-07-10T14:40:29;7.63;;;5.57;;
6257;SDS011;13501;49.246;9.168;2022-07-10T14:42:56;7.40;;;4.80;;
6257;SDS011;13501;49.246;9.168;2022-07-10T14:45:23;3.73;;;2.10;;
6257;SDS011;13501;49.246;9.168;2022-07-10T14:47:51;4.10;;;2.90;;
6257;SDS011;13501;49.246;9.168;2022-07-10T14:50:19;2.93;;;1.80;;
6257;SDS011;13501;49.246;9.168;2022-07-10T14:52:46;2.40;;;1.30;;
6257;SDS011;13501;49.246;9.168;2022-07-10T14:55:13;2.90;;;1.13;;
6257;SDS011;13501;49.246;9.168;2022-07-10T14:57:40;2.87;;;1.17;;
6257;SDS011;13501;49.246;9.168;2022-07-10T15:00:07;3.67;;;1.40;;
6257;SDS011;13501;49.246;9.168;2022-07-10T15:02:34;2.20;;;1.10;;
6257;SDS011;13501;49.246;9.168;2022-07-10T15:05:03;3.23;;;1.47;;
6257;SDS011;13501;49.246;9.168;2022-07-10T15:07:30;4.80;;;1.60;;
6257;SDS011;13501;49.246;9.168;2022-07-10T15:09:57;3.40;;;1.40;;
6257;SDS011;13501;49.246;9.168;2022-07-10T15:12:24;2.60;;;1.40;;
6257;SDS011;13501;49.246;9.168;2022-07-10T15:14:50;2.27;;;1.20;;
6257;SDS011;13501;49.246;9.168;2022-07-10T15:17:18;2.73;;;1.33;;
6257;SDS011;13501;49.246;9.168;2022-07-10T15:19:45;2.07;;;1.37;;
6257;SDS011;13501;49.246;9.168;2022-07-10T15:22:13;3.33;;;1.60;;